Time;durP1;ratioP1;P1;durP2;ratioP2;P2;SDS_P1;SDS_P2;PMS_P1;PMS_P2;Temp;Humidity;BMP_temperature;BMP_pressure;BME280_temperature;BME280_humidity;BME280_pressure;Samples;Min_cycle;Max_cycle;Signal;HPM_P1;HPM_P2
2022/07/31 00:00:57;;;;;;;5.47;0.70;;;;;;;19.09;86.17;99677.31;4826567;29;20272;-56
2022/07/31 00:03:30;;;;;;;1.90;0.40;;;;;;;18.92;87.68;99650.09;4827091;29;20439;-55
2022/07/31 00:06:01;;;;;;;2.83;0.63;;;;;;;18.69;88.22;99674.38;4826781;29;20350;-56
2022/07/31 00:08:32;;;;;;;3.87;0.67;;;;;;;18.58;89.35;99676.84;4826099;29;20667;-58
2022/07/31 00:11:02;;;;;;;2.70;0.70;;;;;;;18.46;90.48;99689.81;4826997;29;20440;-55
2022/07/31 00:13:33;;;;;;;3.30;0.50;;;;;;;18.39;91.69;99688.47;4828015;29;20532;-55
2022/07/31 00:16:24;;;;;;;2.20;0.47;;;;;;;18.29;92.11;99704.00;4826973;29;20577;-56
2022/07/31 00:18:56;;;;;;;1.97;0.30;;;;;;;18.15;93.46;99695.19;4826893;29;20575;-51
2022/07/31 00:21:27;;;;;;;3.70;0.70;;;;;;;18.07;94.11;99720.25;4826357;29;20367;-54
2022/07/31 00:23:58;;;;;;;1.53;0.50;;;;;;;18.07;94.05;99730.84;4826776;29;20434;-56
2022/07/31 00:26:28;;;;;;;2.30;0.40;;;;;;;17.95;94.67;99726.25;4826782;29;20464;-57
2022/07/31 00:28:59;;;;;;;0.60;0.40;;;;;;;17.93;95.41;99727.25;4825930;29;20442;-56
2022/07/31 00:31:30;;;;;;;1.40;0.30;;;;;;;17.80;96.02;99727.09;4826182;29;20371;-53
2022/07/31 00:34:04;;;;;;;2.00;0.40;;;;;;;17.77;96.47;99748.34;4826680;29;20288;-55
2022/07/31 00:36:35;;;;;;;0.70;0.30;;;;;;;17.72;95.54;99750.38;4826811;29;20448;-54
2022/07/31 00:39:06;;;;;;;2.53;0.63;;;;;;;17.58;97.00;99749.34;4826130;29;20288;-53
2022/07/31 00:41:41;;;;;;;1.67;0.50;;;;;;;17.61;97.57;99743.88;4826235;29;20296;-52
2022/07/31 00:44:12;;;;;;;2.60;0.90;;;;;;;17.58;97.97;99753.78;4826674;29;20292;-54
2022/07/31 00:46:43;;;;;;;3.50;0.93;;;;;;;17.73;98.30;99752.94;4826636;29;20299;-55
2022/07/31 00:49:16;;;;;;;2.87;0.80;;;;;;;17.81;96.15;99760.50;4825606;29;20298;-57
2022/07/31 00:51:46;;;;;;;3.03;0.93;;;;;;;17.80;94.57;99764.09;4825960;29;20348;-56
2022/07/31 00:54:17;;;;;;;3.23;0.50;;;;;;;17.85;94.88;99767.31;4826055;29;20295;-57
2022/07/31 00:56:51;;;;;;;3.03;0.63;;;;;;;17.91;93.83;99761.69;4825975;29;20315;-55
2022/07/31 00:59:22;;;;;;;1.50;0.47;;;;;;;17.83;91.16;99748.91;4825345;29;20304;-54
2022/07/31 01:01:53;;;;;;;2.03;0.40;;;;;;;17.87;90.27;99773.34;4825810;29;20331;-58
2022/07/31 01:04:26;;;;;;;3.60;0.60;;;;;;;17.79;90.45;99786.09;4825974;29;20444;-54
2022/07/31 01:07:00;;;;;;;2.53;0.60;;;;;;;17.71;89.76;99796.25;4825614;29;20314;-55
2022/07/31 01:09:32;;;;;;;4.33;0.93;;;;;;;17.64;90.32;99804.47;4826113;29;20287;-58
2022/07/31 01:12:06;;;;;;;3.23;0.50;;;;;;;17.55;90.54;99790.94;4826382;29;20303;-57
2022/07/31 01:14:41;;;;;;;2.17;0.60;;;;;;;17.61;90.13;99809.94;4825943;29;20310;-55
2022/07/31 01:17:13;;;;;;;3.60;0.77;;;;;;;17.74;90.86;99801.34;4825413;29;20287;-57
2022/07/31 01:19:47;;;;;;;1.73;0.60;;;;;;;17.91;91.06;99814.56;4825887;29;20300;-56
2022/07/31 01:22:36;;;;;;;0.97;0.50;;;;;;;17.88;90.02;99820.00;4826129;29;20370;-54
2022/07/31 01:25:12;;;;;;;2.67;0.52;;;;;;;17.87;89.94;99828.84;4825688;29;20291;-55
2022/07/31 01:28:03;;;;;;;1.17;0.40;;;;;;;17.97;89.72;99830.09;4825506;29;20105;-54
2022/07/31 01:30:43;;;;;;;3.13;0.40;;;;;;;18.11;89.12;99830.19;4800535;29;20298;-54
2022/07/31 01:33:19;;;;;;;1.40;0.30;;;;;;;18.17;88.03;99846.66;4830398;29;20295;-52
2022/07/31 01:35:54;;;;;;;1.30;0.30;;;;;;;18.22;88.34;99850.78;4825336;29;20299;-52
2022/07/31 01:38:31;;;;;;;1.20;0.30;;;;;;;18.16;87.24;99834.38;4825469;29;20296;-53
2022/07/31 01:41:06;;;;;;;2.03;0.40;;;;;;;18.24;87.59;99842.75;4825554;29;20293;-56
2022/07/31 01:43:40;;;;;;;1.03;0.23;;;;;;;17.86;88.46;99858.88;4825578;29;20462;-57
2022/07/31 01:46:16;;;;;;;2.57;0.20;;;;;;;17.79;90.66;99873.31;4825964;29;20292;-58
2022/07/31 01:48:49;;;;;;;0.60;0.30;;;;;;;17.96;91.53;99881.25;4825102;29;20518;-54
2022/07/31 01:51:20;;;;;;;0.20;0.20;;;;;;;18.05;89.63;99883.41;4825425;29;20353;-51
2022/07/31 01:53:54;;;;;;;1.47;0.30;;;;;;;18.06;90.10;99879.81;4824343;29;20303;-55
2022/07/31 01:56:26;;;;;;;1.03;0.20;;;;;;;17.84;89.15;99860.75;4824968;29;20443;-55
2022/07/31 01:58:59;;;;;;;0.33;0.23;;;;;;;17.87;90.52;99902.84;4825142;29;20299;-54
2022/07/31 02:01:33;;;;;;;1.27;0.30;;;;;;;17.83;89.77;99901.34;4824693;29;20310;-54
2022/07/31 02:04:04;;;;;;;0.80;0.20;;;;;;;17.69;91.97;99900.22;4825411;29;20284;-54
2022/07/31 02:06:39;;;;;;;0.93;0.40;;;;;;;17.59;91.13;99912.19;4825493;29;20291;-55
2022/07/31 02:09:10;;;;;;;1.37;0.40;;;;;;;17.46;91.43;99919.03;4824331;29;20320;-52
2022/07/31 02:11:40;;;;;;;1.70;0.47;;;;;;;17.46;93.13;99908.47;4824869;29;20291;-53
2022/07/31 02:14:22;;;;;;;0.40;0.23;;;;;;;17.42;91.97;99922.75;4825487;29;20307;-53
2022/07/31 02:16:55;;;;;;;1.90;0.30;;;;;;;17.54;92.53;99924.78;4827360;29;21127;-55
2022/07/31 02:19:27;;;;;;;1.43;0.40;;;;;;;17.42;91.98;99904.25;4827640;29;20315;-54
2022/07/31 02:22:00;;;;;;;2.43;0.47;;;;;;;17.52;91.93;99918.72;4827656;29;20352;-52
2022/07/31 02:24:32;;;;;;;2.50;0.60;;;;;;;17.48;91.46;99911.88;4828666;29;20298;-56
2022/07/31 02:27:04;;;;;;;0.70;0.60;;;;;;;17.42;91.16;99922.75;4828080;29;20452;-55
2022/07/31 02:29:55;;;;;;;2.83;0.50;;;;;;;17.27;92.14;99918.22;4827673;29;20387;-54
2022/07/31 02:32:29;;;;;;;1.93;0.63;;;;;;;16.89;92.16;99861.13;4828153;29;20300;-53
2022/07/31 02:35:01;;;;;;;1.27;0.30;;;;;;;17.16;92.36;99932.81;4828402;29;20284;-56
2022/07/31 02:37:34;;;;;;;0.60;0.30;;;;;;;16.99;94.00;99914.31;4828175;29;20299;-56
2022/07/31 02:40:06;;;;;;;0.30;0.30;;;;;;;17.22;94.02;99953.66;4828581;29;20306;-57
2022/07/31 02:42:37;;;;;;;0.53;0.40;;;;;;;17.23;94.71;99944.78;4827663;29;20310;-56
2022/07/31 02:45:10;;;;;;;0.30;0.30;;;;;;;17.20;94.26;99915.91;4827829;29;20283;-55
2022/07/31 02:47:43;;;;;;;0.57;0.30;;;;;;;17.43;92.15;99932.41;4828015;29;20298;-54
2022/07/31 02:50:15;;;;;;;0.30;0.30;;;;;;;17.41;92.48;99947.47;4827968;29;20303;-55
2022/07/31 02:52:49;;;;;;;0.73;0.30;;;;;;;17.45;91.47;99938.47;4828114;29;20300;-55
2022/07/31 02:55:21;;;;;;;1.53;0.20;;;;;;;17.30;92.36;99939.19;4828321;29;20300;-54
2022/07/31 02:57:51;;;;;;;1.00;0.50;;;;;;;17.36;92.40;99938.91;4828375;29;20294;-55
2022/07/31 03:00:25;;;;;;;2.60;0.50;;;;;;;17.36;91.18;99944.19;4827876;29;20327;-54
2022/07/31 03:02:58;;;;;;;1.67;0.40;;;;;;;17.29;91.12;99953.34;4828322;29;20292;-52
2022/07/31 03:05:30;;;;;;;3.80;0.90;;;;;;;17.37;90.55;99953.81;4828166;29;20283;-58
2022/07/31 03:08:00;;;;;;;1.87;0.40;;;;;;;17.23;90.05;99944.78;4828033;29;20452;-55
2022/07/31 03:10:31;;;;;;;1.57;0.50;;;;;;;17.27;90.25;99976.31;4828049;29;20291;-56
2022/07/31 03:13:03;;;;;;;1.17;0.40;;;;;;;17.29;91.44;99987.66;4827912;29;20381;-55
2022/07/31 03:15:35;;;;;;;1.40;0.50;;;;;;;17.24;91.00;99983.47;4828055;29;20312;-53
2022/07/31 03:18:10;;;;;;;1.43;0.53;;;;;;;17.15;90.94;99989.19;4827230;29;20390;-57
2022/07/31 03:20:41;;;;;;;3.83;0.80;;;;;;;17.09;91.26;100005.31;4827683;29;20426;-53
2022/07/31 03:23:13;;;;;;;0.63;0.40;;;;;;;16.93;90.95;100004.34;4826749;29;20326;-56
2022/07/31 03:25:44;;;;;;;1.30;0.50;;;;;;;17.07;91.93;100007.16;4827767;29;20284;-56
2022/07/31 03:28:15;;;;;;;1.93;0.50;;;;;;;17.07;91.29;100017.72;4827609;29;20307;-53
2022/07/31 03:30:46;;;;;;;2.47;0.40;;;;;;;17.07;91.43;100030.94;4826930;29;20535;-56
2022/07/31 03:33:18;;;;;;;1.33;0.40;;;;;;;17.03;91.14;100021.47;4826593;29;20454;-57
2022/07/31 03:35:49;;;;;;;0.70;0.20;;;;;;;16.98;92.21;100013.75;4827394;29;20345;-55
2022/07/31 03:38:19;;;;;;;2.00;0.50;;;;;;;17.06;92.08;100025.75;4827374;29;20307;-53
2022/07/31 03:41:11;;;;;;;1.43;0.60;;;;;;;16.95;92.34;100018.34;4826266;29;20280;-55
2022/07/31 03:43:43;;;;;;;0.40;0.40;;;;;;;16.89;91.99;100024.72;4826426;29;20326;-54
2022/07/31 03:46:19;;;;;;;1.43;0.40;;;;;;;16.78;93.15;100037.56;4826695;29;20342;-56
2022/07/31 03:48:52;;;;;;;2.70;0.40;;;;;;;16.74;94.67;100036.81;4826840;29;20472;-53
2022/07/31 03:51:22;;;;;;;0.93;0.40;;;;;;;16.64;94.26;100046.06;4826952;29;20326;-54
2022/07/31 03:53:53;;;;;;;0.80;0.40;;;;;;;16.59;94.30;100058.59;4827307;29;21221;-56
2022/07/31 03:56:24;;;;;;;1.27;0.50;;;;;;;16.65;94.95;100058.34;4827241;29;20373;-54
2022/07/31 03:58:55;;;;;;;0.30;0.30;;;;;;;16.55;93.46;100067.59;4827029;29;20311;-54
2022/07/31 04:01:29;;;;;;;1.13;0.50;;;;;;;16.51;93.53;100071.28;4827264;29;20283;-55
2022/07/31 04:04:21;;;;;;;1.80;0.40;;;;;;;16.56;93.78;100079.84;4826779;29;20280;-56
2022/07/31 04:06:52;;;;;;;0.50;0.40;;;;;;;16.60;93.43;100092.00;4826888;29;20572;-56
2022/07/31 04:09:22;;;;;;;0.70;0.60;;;;;;;16.74;94.12;100094.84;4826560;29;20322;-55
2022/07/31 04:11:53;;;;;;;1.53;0.70;;;;;;;16.91;94.41;100082.72;4826711;29;20600;-51
2022/07/31 04:14:23;;;;;;;0.50;0.40;;;;;;;16.84;93.15;100094.47;4826864;29;20296;-55
2022/07/31 04:16:54;;;;;;;2.70;0.47;;;;;;;17.01;94.06;100086.66;4826779;29;20284;-53
2022/07/31 04:19:29;;;;;;;0.57;0.40;;;;;;;16.94;92.40;100090.50;4826442;29;20291;-53
2022/07/31 04:22:00;;;;;;;3.17;0.60;;;;;;;16.83;92.71;100113.91;4826911;29;20309;-56
2022/07/31 04:24:32;;;;;;;1.87;0.87;;;;;;;16.81;93.67;100106.03;4826561;29;20334;-53
2022/07/31 04:27:03;;;;;;;0.60;0.50;;;;;;;16.72;93.70;100116.94;4825432;29;20318;-53
2022/07/31 04:29:41;;;;;;;1.75;0.60;;;;;;;16.56;93.25;100122.06;4826544;29;20448;-54
2022/07/31 04:32:12;;;;;;;1.27;0.60;;;;;;;16.46;93.77;100132.13;4826562;29;20046;-55
2022/07/31 04:34:44;;;;;;;0.77;0.60;;;;;;;16.30;94.64;100142.50;4826352;29;20289;-54
2022/07/31 04:37:17;;;;;;;1.97;0.80;;;;;;;16.11;95.31;100136.25;4824506;29;20299;-55
2022/07/31 04:39:48;;;;;;;1.53;0.70;;;;;;;16.03;96.47;100143.63;4825762;29;20334;-55
2022/07/31 04:42:18;;;;;;;1.10;0.60;;;;;;;16.01;95.86;100150.75;4826646;29;20284;-55
2022/07/31 04:44:49;;;;;;;1.77;0.70;;;;;;;15.91;95.73;100150.25;4826959;29;20291;-53
2022/07/31 04:47:22;;;;;;;1.60;0.90;;;;;;;15.85;96.44;100156.63;4826534;29;20334;-55
2022/07/31 04:49:55;;;;;;;1.30;0.90;;;;;;;15.85;96.82;100161.91;4826457;29;20322;-52
2022/07/31 04:52:28;;;;;;;2.73;1.07;;;;;;;15.90;96.90;100154.66;4826892;29;20295;-52
2022/07/31 04:54:59;;;;;;;3.83;1.73;;;;;;;15.79;96.98;100162.13;4826498;29;20293;-52
2022/07/31 04:57:29;;;;;;;6.93;2.80;;;;;;;15.89;97.97;100158.19;4826489;29;20724;-53
2022/07/31 05:00:00;;;;;;;4.13;1.80;;;;;;;15.96;96.92;100170.22;4826467;29;20292;-52
2022/07/31 05:02:30;;;;;;;8.63;2.70;;;;;;;16.04;96.66;100182.22;4826756;29;20288;-51
2022/07/31 05:05:02;;;;;;;6.20;2.30;;;;;;;16.07;96.76;100169.78;4826454;29;20386;-53
2022/07/31 05:07:33;;;;;;;7.93;2.43;;;;;;;16.01;96.27;100177.09;4826724;29;20298;-52
2022/07/31 05:10:04;;;;;;;9.10;2.97;;;;;;;15.97;96.51;100181.59;4826520;29;20315;-55
2022/07/31 05:12:35;;;;;;;10.23;3.50;;;;;;;16.01;96.92;100188.47;4826633;29;20589;-53
2022/07/31 05:15:07;;;;;;;11.53;4.00;;;;;;;15.98;96.33;100193.03;4826190;29;20637;-55
2022/07/31 05:17:37;;;;;;;9.77;4.03;;;;;;;15.90;96.80;100206.47;4826170;29;20303;-52
2022/07/31 05:20:11;;;;;;;9.57;3.80;;;;;;;15.80;96.41;100213.91;4826399;29;20305;-55
2022/07/31 05:22:41;;;;;;;9.70;4.10;;;;;;;15.82;97.67;100219.97;4826234;29;21046;-56
2022/07/31 05:25:12;;;;;;;12.27;4.10;;;;;;;15.79;96.74;100230.63;4826487;29;20292;-50
2022/07/31 05:27:42;;;;;;;10.40;3.80;;;;;;;15.73;97.08;100231.72;4826268;29;20299;-54
2022/07/31 05:30:18;;;;;;;11.77;4.23;;;;;;;15.72;96.13;100256.38;4826210;29;20323;-53
2022/07/31 05:32:59;;;;;;;5.37;2.40;;;;;;;15.75;95.75;100244.84;4825980;29;20348;-54
2022/07/31 05:35:31;;;;;;;7.80;3.13;;;;;;;15.65;96.44;100251.31;4825869;29;20568;-55
2022/07/31 05:38:02;;;;;;;7.03;3.00;;;;;;;15.63;96.24;100261.06;4826385;29;20303;-55
2022/07/31 05:40:32;;;;;;;9.50;3.47;;;;;;;15.68;96.78;100269.66;4826122;29;20291;-51
2022/07/31 05:43:03;;;;;;;8.67;3.97;;;;;;;15.65;96.57;100294.34;4826209;29;20294;-55
2022/07/31 05:45:33;;;;;;;11.33;3.77;;;;;;;15.60;96.25;100284.88;4826525;29;20296;-55
2022/07/31 05:48:04;;;;;;;9.90;3.50;;;;;;;15.64;96.37;100283.84;4826208;29;20296;-55
2022/07/31 05:50:36;;;;;;;8.60;3.07;;;;;;;15.70;96.39;100283.66;4829295;29;20592;-56
2022/07/31 05:53:07;;;;;;;8.60;3.27;;;;;;;15.72;96.08;100292.34;4829429;29;20304;-54
2022/07/31 05:55:38;;;;;;;8.23;3.17;;;;;;;15.79;96.36;100296.47;4829115;29;20298;-54
2022/07/31 05:58:09;;;;;;;6.97;3.20;;;;;;;15.88;95.73;100298.78;4829101;29;20283;-53
2022/07/31 06:00:46;;;;;;;4.83;2.50;;;;;;;15.98;95.40;100309.00;4829434;29;20504;-54
2022/07/31 06:03:22;;;;;;;8.57;2.67;;;;;;;15.86;94.77;100316.41;4829292;29;20359;-54
2022/07/31 06:05:55;;;;;;;8.50;3.00;;;;;;;15.78;95.13;100302.69;4829388;29;20557;-54
2022/07/31 06:08:26;;;;;;;5.20;2.17;;;;;;;16.06;95.17;100333.25;4828872;29;20362;-55
2022/07/31 06:10:58;;;;;;;6.60;2.30;;;;;;;16.18;94.61;100328.38;4828918;29;20319;-52
2022/07/31 06:13:30;;;;;;;8.00;2.97;;;;;;;16.17;94.57;100325.78;4829238;29;20299;-55
2022/07/31 06:16:01;;;;;;;7.47;2.70;;;;;;;16.09;93.52;100312.91;4828849;29;20288;-54
2022/07/31 06:18:31;;;;;;;6.10;2.30;;;;;;;15.87;93.71;100328.66;4829300;29;20283;-53
2022/07/31 06:21:04;;;;;;;8.50;2.77;;;;;;;15.81;95.77;100317.50;4828460;29;20416;-56
2022/07/31 06:23:34;;;;;;;7.23;2.93;;;;;;;15.78;95.17;100323.75;4829138;29;20294;-54
2022/07/31 06:26:05;;;;;;;6.40;2.43;;;;;;;15.66;95.27;100329.44;4829062;29;20288;-52
2022/07/31 06:28:37;;;;;;;6.50;2.37;;;;;;;15.62;95.88;100322.56;4828775;29;20581;-54
2022/07/31 06:31:19;;;;;;;5.83;2.57;;;;;;;15.56;95.65;100341.22;4828318;29;20384;-53
2022/07/31 06:33:50;;;;;;;7.03;2.93;;;;;;;15.69;96.78;100339.84;4828867;29;20352;-53
2022/07/31 06:36:23;;;;;;;4.93;1.90;;;;;;;15.91;95.49;100339.97;4828514;29;20336;-56
2022/07/31 06:38:53;;;;;;;7.57;2.20;;;;;;;15.84;94.18;100355.13;4828301;29;20608;-57
2022/07/31 06:44:11;;;;;;;5.47;1.93;;;;;;;15.95;94.08;100352.13;4828707;29;20573;-55
2022/07/31 06:46:42;;;;;;;6.50;2.63;;;;;;;16.00;93.59;100359.84;4828145;29;20351;-56
2022/07/31 06:49:18;;;;;;;7.93;1.97;;;;;;;16.08;92.38;100357.78;4827956;29;20331;-54
2022/07/31 06:51:50;;;;;;;6.77;2.23;;;;;;;16.45;90.82;100346.69;4828375;29;20318;-55
2022/07/31 06:54:21;;;;;;;4.77;1.83;;;;;;;16.91;89.54;100359.84;4828102;29;20323;-52
2022/07/31 06:56:55;;;;;;;5.53;2.07;;;;;;;17.07;88.53;100366.19;4828727;29;20495;-54
2022/07/31 06:59:26;;;;;;;3.57;1.40;;;;;;;17.19;87.48;100354.25;4828046;29;20301;-50
2022/07/31 07:02:09;;;;;;;5.37;1.20;;;;;;;17.19;84.72;100349.84;4828314;29;20650;-52
2022/07/31 07:04:39;;;;;;;4.70;1.30;;;;;;;17.26;84.87;100371.56;4828136;29;20422;-53
2022/07/31 07:07:32;;;;;;;7.40;2.00;;;;;;;17.17;85.29;100367.56;4828261;29;20288;-55
2022/07/31 07:10:03;;;;;;;5.50;1.50;;;;;;;16.98;85.55;100371.88;4828173;29;20347;-56
2022/07/31 07:12:34;;;;;;;3.20;1.10;;;;;;;16.92;85.05;100382.66;4828463;29;20355;-55
2022/07/31 07:15:05;;;;;;;2.97;0.80;;;;;;;16.96;84.04;100385.13;4828766;29;20299;-53
2022/07/31 07:17:35;;;;;;;0.97;0.70;;;;;;;16.77;84.17;100395.53;4828373;29;20299;-55
2022/07/31 07:20:07;;;;;;;1.10;0.70;;;;;;;16.61;85.14;100391.78;4828114;29;20295;-54
2022/07/31 07:22:39;;;;;;;2.97;0.90;;;;;;;16.58;85.71;100394.53;4828040;29;20295;-53
2022/07/31 07:25:11;;;;;;;3.57;0.83;;;;;;;16.54;84.71;100371.84;4827862;29;20295;-54
2022/07/31 07:27:42;;;;;;;1.97;0.80;;;;;;;16.51;85.20;100382.50;4827733;29;20433;-54
2022/07/31 07:30:12;;;;;;;7.13;0.97;;;;;;;16.64;85.92;100377.59;4827794;29;20284;-54
2022/07/31 07:32:43;;;;;;;2.00;0.90;;;;;;;16.67;84.00;100388.88;4827822;29;20572;-54
2022/07/31 07:35:14;;;;;;;1.67;0.73;;;;;;;16.73;84.51;100367.56;4827611;29;20581;-54
2022/07/31 07:37:46;;;;;;;5.97;1.10;;;;;;;16.83;83.07;100393.63;4827979;29;20299;-54
2022/07/31 07:40:17;;;;;;;1.43;0.73;;;;;;;16.79;83.48;100393.72;4827606;29;20416;-54
2022/07/31 07:42:47;;;;;;;2.33;1.17;;;;;;;16.83;83.03;100386.53;4827735;29;20300;-56
2022/07/31 07:45:18;;;;;;;2.53;0.70;;;;;;;16.86;82.91;100389.06;4827407;29;20363;-53
2022/07/31 07:47:49;;;;;;;5.77;0.70;;;;;;;16.83;82.47;100385.69;4827560;29;20299;-54
2022/07/31 07:50:35;;;;;;;2.03;0.70;;;;;;;16.91;82.95;100383.59;4827535;29;20375;-54
2022/07/31 07:53:08;;;;;;;1.97;0.70;;;;;;;16.69;83.81;100379.13;4827853;29;20283;-54
2022/07/31 07:55:39;;;;;;;5.93;0.80;;;;;;;16.53;84.05;100399.16;4827605;29;20310;-55
2022/07/31 07:58:10;;;;;;;5.60;0.50;;;;;;;16.32;84.89;100385.84;4827606;29;20287;-52
2022/07/31 08:00:41;;;;;;;2.37;0.63;;;;;;;16.21;85.23;100390.69;4827548;29;20296;-53
2022/07/31 08:03:11;;;;;;;4.20;0.60;;;;;;;16.32;85.21;100393.75;4827354;29;20295;-55
2022/07/31 08:06:02;;;;;;;2.83;1.00;;;;;;;16.30;85.62;100390.34;4826675;29;20292;-52
2022/07/31 08:08:34;;;;;;;9.43;0.80;;;;;;;15.99;86.38;100397.66;4827574;29;20361;-55
2022/07/31 08:11:05;;;;;;;4.93;0.80;;;;;;;15.82;87.97;100404.38;4827252;29;20314;-57
2022/07/31 08:13:35;;;;;;;3.33;1.00;;;;;;;15.62;88.31;100406.84;4827236;29;20300;-53
2022/07/31 08:16:09;;;;;;;5.17;1.23;;;;;;;15.51;88.38;100405.44;4827381;29;20524;-53
2022/07/31 08:18:40;;;;;;;3.70;0.90;;;;;;;15.35;89.49;100393.72;4827082;29;20295;-55
2022/07/31 08:21:10;;;;;;;4.90;1.67;;;;;;;15.31;90.46;100407.91;4827250;29;20382;-55
2022/07/31 08:23:42;;;;;;;8.27;2.63;;;;;;;15.28;91.10;100419.41;4827036;29;20295;-55
2022/07/31 08:26:13;;;;;;;15.10;2.10;;;;;;;15.25;90.74;100413.34;4827285;29;20296;-56
2022/07/31 08:28:43;;;;;;;12.03;2.73;;;;;;;15.08;90.67;100430.56;4827264;29;20299;-56
2022/07/31 08:31:19;;;;;;;17.03;4.07;;;;;;;14.82;91.76;100420.00;4826736;29;20330;-54
2022/07/31 08:33:50;;;;;;;17.00;3.13;;;;;;;14.74;92.03;100437.81;4827348;29;20446;-55
2022/07/31 08:36:20;;;;;;;18.87;4.00;;;;;;;14.54;93.37;100447.16;4826726;29;20287;-54
2022/07/31 08:38:53;;;;;;;27.20;4.77;;;;;;;14.52;93.82;100462.06;4827208;29;20287;-53
2022/07/31 08:41:23;;;;;;;21.87;4.30;;;;;;;14.42;93.95;100458.00;4826945;29;20298;-54
2022/07/31 08:43:55;;;;;;;23.17;5.07;;;;;;;14.42;94.92;100463.25;4826929;29;20292;-54
2022/07/31 08:46:34;;;;;;;26.07;4.97;;;;;;;14.39;94.55;100476.50;4825983;29;20853;-56
2022/07/31 08:49:05;;;;;;;21.83;4.97;;;;;;;14.28;94.70;100483.81;4827198;29;20317;-55
2022/07/31 08:51:38;;;;;;;33.87;5.60;;;;;;;13.85;95.57;100429.81;4826308;29;20319;-54
2022/07/31 08:54:31;;;;;;;31.33;5.47;;;;;;;14.14;95.85;100479.81;4826490;29;20795;-55
2022/07/31 08:57:03;;;;;;;34.00;5.87;;;;;;;14.12;95.97;100476.34;4826755;29;20303;-53
2022/07/31 08:59:41;;;;;;;28.88;5.80;;;;;;;14.02;96.60;100477.50;4826569;29;20287;-55
2022/07/31 09:02:14;;;;;;;31.30;6.20;;;;;;;13.97;96.93;100471.53;4826503;29;20064;-54
2022/07/31 09:04:45;;;;;;;27.25;5.40;;;;;;;13.95;96.83;100479.47;4826924;29;20303;-55
2022/07/31 09:07:21;;;;;;;36.20;6.07;;;;;;;14.02;97.07;100490.66;4825702;29;20088;-55
2022/07/31 09:09:53;;;;;;;35.03;6.30;;;;;;;14.03;97.09;100487.13;4826462;29;20065;-53
2022/07/31 09:12:34;;;;;;;37.63;6.53;;;;;;;13.93;97.38;100485.66;4826280;29;20065;-54
2022/07/31 09:15:05;;;;;;;21.73;5.03;;;;;;;13.89;98.04;100489.25;4826126;29;20065;-54
2022/07/31 09:17:36;;;;;;;36.63;6.57;;;;;;;13.70;98.64;100460.84;4826214;29;20459;-55
2022/07/31 09:20:19;;;;;;;41.15;6.38;;;;;;;13.85;98.86;100487.59;4826033;29;20050;-54
2022/07/31 09:23:04;;;;;;;36.07;6.27;;;;;;;13.87;98.64;100491.91;4826920;29;20084;-55
2022/07/31 09:25:36;;;;;;;36.60;6.68;;;;;;;13.86;98.65;100494.59;4831795;29;20283;-55
2022/07/31 09:28:08;;;;;;;38.55;6.35;;;;;;;13.83;98.89;100498.19;4831616;29;20054;-52
2022/07/31 09:30:41;;;;;;;33.53;7.30;;;;;;;13.81;98.26;100497.34;4831910;29;20337;-51
2022/07/31 09:33:28;;;;;;;31.52;5.47;;;;;;;13.80;98.57;100520.13;4831818;29;20065;-55
2022/07/31 09:36:00;;;;;;;23.50;4.82;;;;;;;13.71;98.48;100507.22;4831887;29;20050;-55
2022/07/31 09:38:32;;;;;;;33.00;6.22;;;;;;;13.69;98.95;100524.78;4831749;29;20054;-54
2022/07/31 09:41:12;;;;;;;31.30;5.70;;;;;;;13.68;99.00;100523.06;4831715;29;20308;-55
2022/07/31 09:44:04;;;;;;;33.38;5.85;;;;;;;13.66;99.19;100530.09;4831718;29;20058;-54
2022/07/31 09:46:44;;;;;;;31.77;6.45;;;;;;;13.70;99.12;100539.63;4831566;29;20199;-54
2022/07/31 09:49:14;;;;;;;34.15;6.47;;;;;;;13.71;99.12;100544.00;4831587;29;20054;-54
2022/07/31 09:51:47;;;;;;;36.67;6.13;;;;;;;13.68;98.78;100544.06;4831593;29;20091;-51
2022/07/31 09:54:22;;;;;;;25.67;5.43;;;;;;;13.65;99.00;100538.88;4831715;29;20335;-54
2022/07/31 09:56:55;;;;;;;39.65;5.88;;;;;;;13.62;99.00;100544.22;4831583;29;20069;-56
2022/07/31 09:59:25;;;;;;;37.00;5.65;;;;;;;13.58;99.06;100558.31;4831801;29;20050;-54
2022/07/31 10:01:57;;;;;;;30.77;6.03;;;;;;;13.56;98.98;100555.72;4832058;29;20057;-54
2022/07/31 10:04:28;;;;;;;33.60;5.95;;;;;;;13.56;99.11;100554.88;4831928;29;20095;-53
2022/07/31 10:06:59;;;;;;;31.42;6.35;;;;;;;13.51;99.06;100562.00;4831627;29;20117;-53
2022/07/31 10:09:31;;;;;;;34.72;5.65;;;;;;;13.51;99.05;100562.00;4831641;29;20054;-53
2022/07/31 10:12:05;;;;;;;36.25;5.35;;;;;;;13.47;99.31;100560.31;4831692;29;20050;-53
2022/07/31 10:14:40;;;;;;;29.42;5.32;;;;;;;13.47;98.99;100560.31;4831996;29;20050;-50
2022/07/31 10:17:12;;;;;;;29.95;5.97;;;;;;;13.50;99.32;100576.00;4831142;29;20046;-52
2022/07/31 10:19:47;;;;;;;29.02;6.32;;;;;;;13.50;99.79;100560.25;4831657;29;20118;-54
2022/07/31 10:22:20;;;;;;;37.08;6.18;;;;;;;13.50;100.00;100576.00;4831220;29;20409;-54
2022/07/31 10:24:54;;;;;;;37.88;6.25;;;;;;;13.47;99.97;100589.22;4831756;29;20072;-55
2022/07/31 10:27:26;;;;;;;38.80;5.40;;;;;;;13.47;99.90;100583.94;4831802;29;20438;-50
2022/07/31 10:29:59;;;;;;;27.05;5.55;;;;;;;13.48;100.00;100588.28;4831302;29;20065;-54
2022/07/31 10:32:30;;;;;;;27.58;5.65;;;;;;;13.50;99.87;100591.75;4831754;29;20739;-51
2022/07/31 10:35:01;;;;;;;34.70;5.65;;;;;;;13.52;99.76;100609.19;4829006;29;20070;-51
2022/07/31 10:37:37;;;;;;;29.02;5.72;;;;;;;13.50;99.77;100597.84;4828152;29;20057;-52
2022/07/31 10:40:19;;;;;;;28.55;5.55;;;;;;;13.53;99.60;100602.22;4829026;29;20054;-54
2022/07/31 10:43:13;;;;;;;32.42;5.97;;;;;;;13.54;99.76;100609.16;4828136;29;20372;-53
2022/07/31 10:45:50;;;;;;;35.20;5.68;;;;;;;13.54;99.76;100614.41;4828546;29;20046;-54
2022/07/31 10:48:21;;;;;;;38.72;5.90;;;;;;;13.55;99.51;100621.38;4828235;29;20062;-53
2022/07/31 10:51:02;;;;;;;30.20;5.30;;;;;;;13.54;99.17;100630.19;4828387;29;20319;-53
2022/07/31 10:53:33;;;;;;;28.60;5.82;;;;;;;13.52;99.25;100627.56;4828076;29;20062;-50
2022/07/31 10:56:24;;;;;;;29.85;5.22;;;;;;;13.57;99.29;100635.34;4828313;29;20329;-54
2022/07/31 10:58:58;;;;;;;32.05;5.35;;;;;;;13.61;99.48;100639.63;4827926;29;20050;-57
2022/07/31 11:01:29;;;;;;;28.00;5.65;;;;;;;13.61;99.24;100642.28;4828380;29;20231;-54
2022/07/31 11:04:03;;;;;;;32.92;5.57;;;;;;;13.58;99.18;100647.59;4828538;29;20093;-51
2022/07/31 11:06:41;;;;;;;29.88;4.93;;;;;;;13.55;99.17;100647.63;4828215;29;20518;-54
2022/07/31 11:09:22;;;;;;;31.98;5.82;;;;;;;13.51;99.41;100646.84;4828058;29;20303;-52
2022/07/31 11:11:54;;;;;;;40.33;5.38;;;;;;;13.28;99.73;100620.22;4827821;29;20369;-50
2022/07/31 11:14:37;;;;;;;28.45;5.18;;;;;;;13.43;100.00;100645.28;4828127;29;20072;-48
2022/07/31 11:17:08;;;;;;;29.45;5.30;;;;;;;13.41;100.00;100644.47;4828002;29;20053;-54
2022/07/31 11:19:40;;;;;;;30.20;5.15;;;;;;;13.43;100.00;100642.66;4828439;29;20102;-54
2022/07/31 11:22:11;;;;;;;20.33;4.75;;;;;;;13.42;100.00;100644.44;4828231;29;20058;-48
2022/07/31 11:25:01;;;;;;;28.60;5.45;;;;;;;13.45;100.00;100640.88;4828272;29;20085;-50
2022/07/31 11:27:32;;;;;;;43.13;5.60;;;;;;;13.22;100.00;100608.09;4827889;29;20058;-52
2022/07/31 11:30:09;;;;;;;28.48;4.75;;;;;;;13.35;100.00;100646.34;4827562;29;20046;-54
2022/07/31 11:32:47;;;;;;;35.03;5.68;;;;;;;13.35;100.00;100646.34;4828314;29;20291;-53
2022/07/31 11:35:32;;;;;;;30.65;4.50;;;;;;;13.37;100.00;100644.53;4827505;29;20046;-49
2022/07/31 11:38:02;;;;;;;33.20;5.38;;;;;;;13.36;100.00;100640.19;4827522;29;20069;-54
2022/07/31 11:40:35;;;;;;;30.42;4.72;;;;;;;13.37;100.00;100649.78;4827771;29;20070;-51
2022/07/31 11:43:09;;;;;;;36.97;5.63;;;;;;;13.37;100.00;100649.78;4827417;29;20214;-54
2022/07/31 11:45:57;;;;;;;34.55;4.80;;;;;;;13.34;100.00;100654.25;4827345;29;20262;-53
2022/07/31 11:48:30;;;;;;;36.17;5.55;;;;;;;13.31;100.00;100655.16;4826819;29;20682;-54
2022/07/31 11:51:08;;;;;;;28.27;4.53;;;;;;;13.25;100.00;100650.00;4827115;29;20119;-55
2022/07/31 11:53:42;;;;;;;31.27;6.25;;;;;;;13.27;100.00;100653.50;4827384;29;20227;-54
2022/07/31 11:56:13;;;;;;;29.75;5.53;;;;;;;13.27;100.00;100653.50;4827681;29;20058;-54